createdAt,value
2022-12-06T00:01:29.638Z,21.85
2022-12-06T00:03:59.353Z,15.90
2022-12-06T00:06:29.265Z,16.88
2022-12-06T00:08:58.109Z,18.92
2022-12-06T00:11:31.218Z,13.90
2022-12-06T00:14:05.180Z,15.90
2022-12-06T00:16:33.416Z,14.63
2022-12-06T00:19:00.908Z,15.90
2022-12-06T00:21:36.240Z,14.43
2022-12-06T00:24:08.962Z,17.42
2022-12-06T00:26:37.505Z,20.13
2022-12-06T00:29:05.349Z,18.30
2022-12-06T00:31:34.677Z,14.63
2022-12-06T00:34:01.932Z,18.67
2022-12-06T00:36:31.353Z,14.82
2022-12-06T00:39:03.751Z,19.58
2022-12-06T00:41:30.755Z,14.50
2022-12-06T00:43:57.636Z,15.80
2022-12-06T00:46:31.232Z,15.70
2022-12-06T00:49:00.055Z,15.10
2022-12-06T00:51:29.932Z,13.93
2022-12-06T00:53:57.218Z,17.38
2022-12-06T00:56:24.572Z,12.43
2022-12-06T00:58:51.634Z,12.13
2022-12-06T01:01:21.771Z,16.65
2022-12-06T01:03:52.270Z,15.88
2022-12-06T01:06:22.887Z,16.63
2022-12-06T01:08:49.994Z,13.52
2022-12-06T01:11:17.560Z,14.18
2022-12-06T01:13:44.643Z,15.27
2022-12-06T01:16:17.758Z,12.88
2022-12-06T01:18:45.633Z,15.98
2022-12-06T01:21:18.111Z,15.38
2022-12-06T01:23:46.060Z,13.27
2022-12-06T01:26:20.572Z,13.77
2022-12-06T01:28:47.859Z,16.38
2022-12-06T01:31:16.248Z,11.07
2022-12-06T01:33:43.671Z,12.65
2022-12-06T01:36:20.884Z,13.82
2022-12-06T01:38:52.556Z,12.15
2022-12-06T01:41:21.335Z,14.00
2022-12-06T01:43:48.641Z,10.20
2022-12-06T01:46:26.669Z,15.90
2022-12-06T01:49:13.866Z,11.82
2022-12-06T01:51:53.491Z,13.18
2022-12-06T01:54:21.827Z,8.25
2022-12-06T01:56:50.597Z,10.68
2022-12-06T01:59:18.309Z,7.05
2022-12-06T02:01:47.311Z,10.55
2022-12-06T02:04:16.633Z,10.63
2022-12-06T02:06:45.865Z,10.52
2022-12-06T02:09:14.068Z,10.52
2022-12-06T02:11:41.629Z,13.43
2022-12-06T02:14:13.649Z,10.88
2022-12-06T02:16:46.632Z,10.25
2022-12-06T02:24:57.995Z,11.18
2022-12-06T02:27:46.630Z,11.48
2022-12-06T02:30:36.279Z,10.25
2022-12-06T02:33:19.042Z,11.77
2022-12-06T02:36:14.135Z,10.35
2022-12-06T02:38:49.236Z,15.10
2022-12-06T02:41:36.720Z,13.45
2022-12-06T02:44:07.058Z,12.18
2022-12-06T02:46:37.534Z,10.80
2022-12-06T02:49:07.973Z,15.13
2022-12-06T02:51:37.579Z,12.38
2022-12-06T02:54:08.243Z,13.82
2022-12-06T02:56:35.795Z,14.40
2022-12-06T02:59:02.823Z,16.92
2022-12-06T03:01:41.664Z,16.55
2022-12-06T03:04:27.472Z,12.77
2022-12-06T03:07:12.399Z,12.32
2022-12-06T03:09:53.844Z,14.10
2022-12-06T03:12:37.400Z,14.30
2022-12-06T03:15:10.461Z,12.35
2022-12-06T03:17:54.241Z,14.45
2022-12-06T03:20:44.877Z,12.50
2022-12-06T03:23:19.959Z,14.65
2022-12-06T03:25:49.279Z,17.17
2022-12-06T03:28:18.461Z,14.55
2022-12-06T03:30:50.616Z,12.55
2022-12-06T03:33:22.385Z,15.35
2022-12-06T03:35:52.577Z,13.90
2022-12-06T03:38:25.977Z,10.82
2022-12-06T03:40:55.406Z,12.52
2022-12-06T03:43:22.683Z,8.68
2022-12-06T03:45:57.231Z,12.40
2022-12-06T03:48:40.814Z,15.77
2022-12-06T03:51:17.100Z,12.68
2022-12-06T03:53:50.827Z,13.10
2022-12-06T03:56:18.002Z,13.48
2022-12-06T03:58:45.757Z,13.05
2022-12-06T04:01:12.923Z,11.07
2022-12-06T04:03:40.302Z,12.88
2022-12-06T04:06:09.019Z,12.32
2022-12-06T04:08:36.604Z,13.50
2022-12-06T04:11:04.256Z,13.10
2022-12-06T04:13:32.133Z,15.88
2022-12-06T04:16:00.963Z,14.63
2022-12-06T04:18:28.914Z,14.15
2022-12-06T04:21:40.045Z,14.60
2022-12-06T04:24:07.059Z,12.73
2022-12-06T04:26:34.077Z,12.80
2022-12-06T04:29:19.687Z,8.93
2022-12-06T04:32:05.343Z,13.38
2022-12-06T04:34:50.731Z,13.73
2022-12-06T04:37:36.200Z,11.60
2022-12-06T04:40:03.464Z,13.95
2022-12-06T04:42:49.090Z,14.63
2022-12-06T04:45:16.129Z,14.23
2022-12-06T04:47:43.203Z,13.65
2022-12-06T04:50:10.251Z,16.15
2022-12-06T04:52:37.341Z,19.08
2022-12-06T04:55:05.438Z,18.23
2022-12-06T04:57:32.536Z,13.73
2022-12-06T04:59:59.735Z,18.70
2022-12-06T05:02:26.934Z,21.17
2022-12-06T05:04:53.895Z,17.40
2022-12-06T05:07:21.616Z,21.02
2022-12-06T05:09:48.551Z,22.65
2022-12-06T05:12:15.529Z,16.98
2022-12-06T05:14:42.482Z,21.50
2022-12-06T05:17:09.739Z,17.48
2022-12-06T05:19:36.854Z,16.67
2022-12-06T05:22:03.912Z,20.92
2022-12-06T05:24:30.861Z,15.80
2022-12-06T05:26:58.087Z,18.55
2022-12-06T05:29:25.091Z,17.17
2022-12-06T05:31:52.523Z,18.38
2022-12-06T05:34:19.723Z,19.88
2022-12-06T05:36:46.705Z,19.05
2022-12-06T05:39:13.676Z,16.90
2022-12-06T05:41:40.659Z,20.67
2022-12-06T05:44:09.096Z,17.40
2022-12-06T05:46:36.033Z,16.33
2022-12-06T05:49:03.100Z,21.30
2022-12-06T05:51:30.101Z,18.17
2022-12-06T05:53:57.101Z,20.15
2022-12-06T05:56:24.092Z,20.50
2022-12-06T05:58:51.056Z,19.50
2022-12-06T06:01:18.050Z,29.65
2022-12-06T06:03:47.706Z,30.50
2022-12-06T06:06:15.500Z,25.40
2022-12-06T06:08:42.839Z,22.00
2022-12-06T06:11:09.799Z,18.65
2022-12-06T06:13:37.031Z,22.08
2022-12-06T06:16:04.540Z,20.67
2022-12-06T06:18:31.585Z,20.58
2022-12-06T06:21:00.421Z,18.55
2022-12-06T06:23:28.441Z,25.48
2022-12-06T06:25:55.710Z,21.65
2022-12-06T06:28:23.449Z,26.05
2022-12-06T06:30:50.464Z,25.60
2022-12-06T06:33:17.606Z,24.85
2022-12-06T06:35:44.620Z,22.88
2022-12-06T06:38:12.560Z,23.55
2022-12-06T06:40:39.641Z,20.55
2022-12-06T06:43:18.974Z,25.48
2022-12-06T06:46:00.588Z,25.90
2022-12-06T06:48:29.431Z,28.15
2022-12-06T06:50:57.800Z,25.77
2022-12-06T06:53:28.047Z,24.48
2022-12-06T06:55:55.680Z,29.17
2022-12-06T06:58:23.079Z,19.58
2022-12-06T07:00:58.515Z,24.50
2022-12-06T07:03:26.746Z,22.90
2022-12-06T07:06:02.876Z,22.05
2022-12-06T07:08:31.246Z,21.50
2022-12-06T07:10:58.801Z,20.80
2022-12-06T07:13:27.601Z,24.15
2022-12-06T07:15:54.750Z,21.35
2022-12-06T07:18:22.241Z,22.55
2022-12-06T07:20:49.475Z,23.30
2022-12-06T07:23:17.123Z,24.95
2022-12-06T07:25:44.342Z,55.05
2022-12-06T07:28:14.899Z,36.30
2022-12-06T07:30:42.075Z,31.55
2022-12-06T07:33:09.271Z,33.10
2022-12-06T07:36:10.454Z,38.92
2022-12-06T07:38:23.394Z,35.47
2022-12-06T07:41:04.454Z,27.42
2022-12-06T07:43:50.675Z,33.70
2022-12-06T07:46:17.888Z,33.45
2022-12-06T07:48:45.011Z,33.17
2022-12-06T07:51:12.211Z,32.47
2022-12-06T07:53:39.193Z,21.80
2022-12-06T07:56:08.339Z,23.77
2022-12-06T07:58:35.403Z,26.70
2022-12-06T08:01:04.585Z,24.75
2022-12-06T08:03:32.181Z,20.67
2022-12-06T08:05:59.601Z,22.95
2022-12-06T08:08:29.376Z,27.08
2022-12-06T08:11:03.807Z,25.10
2022-12-06T08:13:31.817Z,29.40
2022-12-06T08:16:00.766Z,26.77
2022-12-06T08:18:30.119Z,29.48
2022-12-06T08:21:01.916Z,33.30
2022-12-06T08:23:34.151Z,37.08
2022-12-06T08:26:06.298Z,27.60
2022-12-06T08:28:36.068Z,26.65
2022-12-06T08:31:12.596Z,26.45
2022-12-06T08:33:42.108Z,28.95
2022-12-06T08:36:14.875Z,45.63
2022-12-06T08:38:49.400Z,41.55
2022-12-06T08:41:39.659Z,69.13
2022-12-06T08:44:12.973Z,41.97
2022-12-06T08:46:41.318Z,23.48
2022-12-06T08:49:12.383Z,26.60
2022-12-06T08:51:40.010Z,40.40
2022-12-06T08:54:09.702Z,50.78
2022-12-06T08:56:38.951Z,30.40
2022-12-06T08:59:10.607Z,32.00
2022-12-06T09:01:40.230Z,74.60
2022-12-06T09:04:18.612Z,31.35
2022-12-06T09:06:51.143Z,60.15
2022-12-06T09:09:20.572Z,43.75
2022-12-06T09:11:50.370Z,30.33
2022-12-06T09:14:21.889Z,27.90
2022-12-06T09:16:51.411Z,33.20
2022-12-06T09:19:25.666Z,53.38
2022-12-06T09:21:53.404Z,27.50
2022-12-06T09:24:21.480Z,28.83
2022-12-06T09:26:49.409Z,24.27
2022-12-06T09:29:20.132Z,23.80
2022-12-06T09:31:54.439Z,22.83
2022-12-06T09:34:23.642Z,22.92
2022-12-06T09:37:25.237Z,18.70
2022-12-06T09:39:57.412Z,21.27
2022-12-06T09:43:01.367Z,19.17
2022-12-06T09:46:13.137Z,20.17
2022-12-06T09:49:15.987Z,16.10
2022-12-06T09:52:03.378Z,14.52
2022-12-06T09:57:34.776Z,11.40
2022-12-06T10:04:54.500Z,8.00
2022-12-06T10:32:17.440Z,6.60
2022-12-06T13:05:40.597Z,2.78
2022-12-06T13:58:30.926Z,3.00
2022-12-06T16:33:20.622Z,19.85
2022-12-06T16:35:49.969Z,21.23
2022-12-06T16:38:18.482Z,45.85
2022-12-06T16:40:46.873Z,26.65
2022-12-06T16:43:14.159Z,22.60
2022-12-06T16:45:44.307Z,20.95
2022-12-06T16:48:18.221Z,14.93
2022-12-06T16:50:47.635Z,13.98
2022-12-06T16:53:18.304Z,24.02
2022-12-06T16:55:45.567Z,59.83
2022-12-06T16:58:12.958Z,13.98
2022-12-06T17:00:40.459Z,16.58
2022-12-06T17:03:09.612Z,10.93
2022-12-06T17:05:37.024Z,16.70
2022-12-06T17:08:04.871Z,28.17
2022-12-06T17:10:32.322Z,102.70
2022-12-06T17:13:00.273Z,104.82
2022-12-06T17:15:27.912Z,83.25
2022-12-06T17:17:55.710Z,107.65
2022-12-06T17:20:23.430Z,43.55
2022-12-06T17:22:51.173Z,36.33
2022-12-06T17:25:20.681Z,55.45
2022-12-06T17:27:48.327Z,29.67
2022-12-06T17:30:18.066Z,30.50
2022-12-06T17:32:48.282Z,30.40
2022-12-06T17:35:16.237Z,29.65
2022-12-06T17:37:47.698Z,35.40
2022-12-06T17:40:15.824Z,39.72
2022-12-06T17:43:01.585Z,45.10
2022-12-06T17:45:29.355Z,42.78
2022-12-06T17:47:57.678Z,37.90
2022-12-06T17:50:25.749Z,37.47
2022-12-06T17:52:53.056Z,48.92
2022-12-06T17:55:20.252Z,45.88
2022-12-06T17:57:47.757Z,54.10
2022-12-06T18:00:15.836Z,50.97
2022-12-06T18:02:43.466Z,60.35
2022-12-06T18:05:10.783Z,53.20
2022-12-06T18:07:38.765Z,53.60
2022-12-06T18:10:07.066Z,60.22
2022-12-06T18:12:35.207Z,55.15
2022-12-06T18:15:03.604Z,64.63
2022-12-06T18:17:31.656Z,79.15
2022-12-06T18:20:00.577Z,65.22
2022-12-06T18:22:28.297Z,59.28
2022-12-06T18:24:56.250Z,61.38
2022-12-06T18:27:24.755Z,52.55
2022-12-06T18:29:52.108Z,56.47
2022-12-06T18:32:24.076Z,51.78
2022-12-06T18:34:52.319Z,61.05
2022-12-06T18:37:21.634Z,49.63
2022-12-06T18:39:49.691Z,45.97
2022-12-06T18:42:17.532Z,47.20
2022-12-06T18:44:45.667Z,63.50
2022-12-06T18:47:13.352Z,119.30
2022-12-06T18:49:42.234Z,79.53
2022-12-06T18:52:13.128Z,66.65
2022-12-06T18:54:41.649Z,64.75
2022-12-06T18:57:09.331Z,63.22
2022-12-06T18:59:38.694Z,60.80
2022-12-06T19:02:07.115Z,56.92
2022-12-06T19:04:34.714Z,50.05
2022-12-06T19:07:02.591Z,44.10
2022-12-06T19:09:30.873Z,35.90
2022-12-06T19:11:58.559Z,30.13
2022-12-06T19:14:26.560Z,38.95
2022-12-06T19:16:54.990Z,44.67
2022-12-06T19:19:26.699Z,41.78
2022-12-06T19:21:55.882Z,39.78
2022-12-06T19:24:26.284Z,40.95
2022-12-06T19:26:57.576Z,48.08
2022-12-06T19:29:30.307Z,47.85
2022-12-06T19:32:07.894Z,74.60
2022-12-06T19:34:36.421Z,91.00
2022-12-06T19:37:04.604Z,98.00
2022-12-06T19:39:32.756Z,105.85
2022-12-06T19:42:19.175Z,97.35
2022-12-06T19:44:47.414Z,96.18
2022-12-06T19:47:17.482Z,106.97
2022-12-06T19:49:47.217Z,99.07
2022-12-06T19:52:15.349Z,116.43
2022-12-06T19:54:44.329Z,108.97
2022-12-06T19:57:12.646Z,117.93
2022-12-06T19:59:41.061Z,114.20
2022-12-06T20:02:12.619Z,128.75
2022-12-06T20:04:42.549Z,111.63
2022-12-06T20:07:10.945Z,116.60
2022-12-06T20:09:39.955Z,130.70
2022-12-06T20:12:09.397Z,106.13
2022-12-06T20:14:48.486Z,93.13
2022-12-06T20:17:20.703Z,86.25
2022-12-06T20:19:53.004Z,85.60
2022-12-06T20:22:23.178Z,74.85
2022-12-06T20:24:51.459Z,72.07
2022-12-06T20:27:40.349Z,68.75
2022-12-06T20:30:09.395Z,64.38
2022-12-06T20:32:39.266Z,65.80
2022-12-06T20:35:07.574Z,68.70
2022-12-06T20:37:35.850Z,58.05
2022-12-06T20:40:05.207Z,58.88
2022-12-06T20:42:34.113Z,61.22
2022-12-06T20:45:02.506Z,57.72
2022-12-06T20:47:30.841Z,63.55
2022-12-06T20:50:02.222Z,86.07
2022-12-06T20:52:31.444Z,68.70
2022-12-06T20:54:59.410Z,74.68
2022-12-06T20:57:29.071Z,79.45
2022-12-06T21:00:00.803Z,87.30
2022-12-06T21:02:32.599Z,67.57
2022-12-06T21:05:00.858Z,50.20
2022-12-06T21:07:28.729Z,52.97
2022-12-06T21:09:56.318Z,63.55
2022-12-06T21:12:24.254Z,59.28
2022-12-06T21:14:52.423Z,59.22
2022-12-06T21:17:19.899Z,60.97
2022-12-06T21:19:47.204Z,55.63
2022-12-06T21:22:20.371Z,55.72
2022-12-06T21:24:49.020Z,56.65
2022-12-06T21:27:16.071Z,60.33
2022-12-06T21:29:43.202Z,74.20
2022-12-06T21:32:10.413Z,86.38
2022-12-06T21:34:46.033Z,74.05
2022-12-06T21:37:13.666Z,89.57
2022-12-06T21:39:41.001Z,102.50
2022-12-06T21:42:11.191Z,100.57
2022-12-06T21:44:38.280Z,101.60
2022-12-06T21:47:05.307Z,112.72
2022-12-06T21:49:32.346Z,82.97
2022-12-06T21:52:05.879Z,108.70
2022-12-06T21:54:36.397Z,112.18
2022-12-06T21:57:05.929Z,113.97
2022-12-06T21:59:33.061Z,116.45
2022-12-06T22:02:00.206Z,81.40
2022-12-06T22:04:27.667Z,73.20
2022-12-06T22:06:54.836Z,77.07
2022-12-06T22:09:22.039Z,65.78
2022-12-06T22:11:49.403Z,69.75
2022-12-06T22:14:16.618Z,62.80
2022-12-06T22:16:43.910Z,80.38
2022-12-06T22:19:10.905Z,70.40
2022-12-06T22:21:38.127Z,73.63
2022-12-06T22:24:05.420Z,109.43
2022-12-06T22:26:32.546Z,109.97
2022-12-06T22:29:00.371Z,112.60
2022-12-06T22:31:30.044Z,104.88
2022-12-06T22:33:58.203Z,102.90
2022-12-06T22:36:27.035Z,97.65
2022-12-06T22:38:59.611Z,100.70
2022-12-06T22:41:28.209Z,110.72
2022-12-06T22:44:01.382Z,110.90
2022-12-06T22:46:29.690Z,119.47
2022-12-06T22:48:58.310Z,145.15
2022-12-06T22:51:28.182Z,143.52
2022-12-06T22:54:00.722Z,135.10
2022-12-06T22:56:29.159Z,108.30
2022-12-06T22:58:58.588Z,131.98
2022-12-06T23:01:27.979Z,133.90
2022-12-06T23:03:56.265Z,143.02
2022-12-06T23:06:25.515Z,131.55
2022-12-06T23:08:53.300Z,140.32
2022-12-06T23:11:29.434Z,127.07
2022-12-06T23:13:57.768Z,127.53
2022-12-06T23:16:28.887Z,119.47
2022-12-06T23:18:56.700Z,117.55
2022-12-06T23:21:29.675Z,106.75
2022-12-06T23:26:32.654Z,98.80
2022-12-06T23:29:00.441Z,97.70
2022-12-06T23:31:31.197Z,95.68
2022-12-06T23:34:03.928Z,92.38
2022-12-06T23:36:32.782Z,90.15
2022-12-06T23:39:00.386Z,79.13
2022-12-06T23:41:29.410Z,69.45
2022-12-06T23:43:57.626Z,71.25
2022-12-06T23:46:27.970Z,74.00
2022-12-06T23:48:55.613Z,56.58
2022-12-06T23:51:34.638Z,57.75
2022-12-06T23:54:03.783Z,53.45
2022-12-06T23:56:33.467Z,51.38
2022-12-06T23:59:01.488Z,48.10
